Time;durP1;ratioP1;P1;durP2;ratioP2;P2;SDS_P1;SDS_P2;PMS_P1;PMS_P2;Temp;Humidity;BMP_temperature;BMP_pressure;BME280_temperature;BME280_humidity;BME280_pressure;Samples;Min_cycle;Max_cycle;Signal;HPM_P1;HPM_P2
2021/05/13 00:01:46;;;;;;;5.90;5.40;;;13.90;99.90;;;;;;4964490;28;20196;-76
2021/05/13 00:04:12;;;;;;;6.18;5.60;;;13.90;99.90;;;;;;4975202;28;20622;-77
2021/05/13 00:06:38;;;;;;;5.90;5.20;;;13.80;99.90;;;;;;4979167;28;20636;-76
2021/05/13 00:09:09;;;;;;;6.57;6.00;;;13.80;99.90;;;;;;4960242;28;20563;-77
2021/05/13 00:11:37;;;;;;;6.40;5.90;;;13.70;99.90;;;;;;4944093;28;20206;-76
2021/05/13 00:14:05;;;;;;;6.38;5.88;;;13.70;99.90;;;;;;4959645;28;20203;-77
2021/05/13 00:16:33;;;;;;;6.72;6.22;;;13.70;99.90;;;;;;4959429;28;20261;-77
2021/05/13 00:19:09;;;;;;;7.15;6.45;;;13.60;99.90;;;;;;4976428;28;20176;-76
2021/05/13 00:21:40;;;;;;;5.85;5.35;;;13.60;99.90;;;;;;4943046;28;20671;-76
2021/05/13 00:24:07;;;;;;;7.22;6.07;;;13.60;99.90;;;;;;4959083;28;20191;-77
2021/05/13 00:26:38;;;;;;;6.80;6.20;;;13.50;99.90;;;;;;4998469;23;20172;-81
2021/05/13 00:29:15;;;;;;;5.53;5.03;;;13.50;99.90;;;;;;4953678;29;20184;-82
2021/05/13 00:31:42;;;;;;;6.60;6.00;;;13.50;99.90;;;;;;4969327;29;20175;-83
2021/05/13 00:34:09;;;;;;;6.72;6.22;;;13.50;99.90;;;;;;4968022;29;20215;-83
2021/05/13 00:36:37;;;;;;;7.22;6.63;;;13.50;99.90;;;;;;4954273;28;20176;-82
2021/05/13 00:39:08;;;;;;;7.13;6.43;;;13.40;99.90;;;;;;4969503;29;20201;-82
2021/05/13 00:41:34;;;;;;;6.40;5.90;;;13.40;99.90;;;;;;4947604;29;20662;-82
2021/05/13 00:44:00;;;;;;;6.27;5.77;;;13.40;99.90;;;;;;4952269;29;20271;-81
2021/05/13 00:46:26;;;;;;;6.93;6.32;;;13.40;99.90;;;;;;4952702;28;20560;-82
2021/05/13 00:49:00;;;;;;;6.03;5.43;;;13.30;99.90;;;;;;4977070;29;20203;-82
2021/05/13 00:51:27;;;;;;;6.20;5.60;;;13.30;99.90;;;;;;4976967;29;20603;-82
2021/05/13 00:53:55;;;;;;;6.97;6.35;;;13.30;99.90;;;;;;4977441;29;20200;-81
2021/05/13 00:56:21;;;;;;;7.30;6.70;;;13.20;99.90;;;;;;4953751;28;20177;-82
2021/05/13 00:58:49;;;;;;;7.18;6.57;;;13.20;99.90;;;;;;4971123;29;20509;-80
2021/05/13 01:01:17;;;;;;;6.43;5.97;;;13.10;99.90;;;;;;4978898;29;20219;-83
2021/05/13 01:03:43;;;;;;;6.38;5.78;;;13.10;99.90;;;;;;4964985;29;20203;-83
2021/05/13 01:06:11;;;;;;;6.88;6.03;;;13.10;99.90;;;;;;4980900;28;20181;-81
2021/05/13 01:08:37;;;;;;;7.30;6.80;;;13.10;99.90;;;;;;4981306;28;20263;-82
2021/05/13 01:11:07;;;;;;;6.55;5.95;;;13.00;99.90;;;;;;4981442;28;20175;-81
2021/05/13 01:13:34;;;;;;;12.02;6.50;;;13.00;99.90;;;;;;4979263;28;20214;-82
2021/05/13 01:16:24;;;;;;;6.82;6.22;;;13.00;99.90;;;;;;4976961;29;20172;-82
2021/05/13 01:18:49;;;;;;;5.75;5.30;;;12.90;99.90;;;;;;4956976;29;20176;-81
2021/05/13 01:21:15;;;;;;;9.97;6.67;;;12.90;99.90;;;;;;4953767;29;20195;-81
2021/05/13 01:23:42;;;;;;;7.30;6.70;;;12.90;99.90;;;;;;4957058;29;20179;-81
2021/05/13 01:26:09;;;;;;;7.28;6.53;;;12.80;99.90;;;;;;4975725;29;20209;-81
2021/05/13 01:28:35;;;;;;;6.68;6.07;;;12.80;99.90;;;;;;4960530;29;20212;-81
2021/05/13 01:31:00;;;;;;;7.57;6.97;;;12.80;99.90;;;;;;4977110;29;20381;-81
2021/05/13 01:33:27;;;;;;;6.87;6.20;;;12.80;99.90;;;;;;4950501;29;20698;-80
2021/05/13 01:35:54;;;;;;;6.60;6.00;;;12.80;99.90;;;;;;4941058;29;20672;-80
2021/05/13 01:38:22;;;;;;;8.05;6.53;;;12.80;99.90;;;;;;4947773;29;20203;-81
2021/05/13 01:40:55;;;;;;;7.05;6.35;;;12.70;99.90;;;;;;4968285;29;20179;-81
2021/05/13 01:43:23;;;;;;;10.45;7.90;;;12.70;99.90;;;;;;4970029;29;20509;-81
2021/05/13 01:45:49;;;;;;;5.80;5.28;;;12.70;99.90;;;;;;4967002;29;20165;-81
2021/05/13 01:48:15;;;;;;;6.10;5.17;;;12.60;99.90;;;;;;4972530;28;20189;-82
2021/05/13 01:50:41;;;;;;;6.30;5.23;;;12.60;99.90;;;;;;4969894;29;20180;-82
2021/05/13 01:53:07;;;;;;;5.60;5.20;;;12.60;99.90;;;;;;4968097;29;20687;-82
2021/05/13 01:55:34;;;;;;;4.93;4.50;;;12.60;99.90;;;;;;4970425;29;20556;-82
2021/05/13 01:58:00;;;;;;;5.60;5.10;;;12.70;99.90;;;;;;4960968;29;20192;-82
2021/05/13 02:00:27;;;;;;;5.57;5.15;;;12.60;99.90;;;;;;4970419;29;20216;-81
2021/05/13 02:02:53;;;;;;;5.20;4.80;;;12.70;99.90;;;;;;4968707;29;20259;-82
2021/05/13 02:05:20;;;;;;;6.00;5.00;;;12.70;99.90;;;;;;4951118;29;20239;-82
2021/05/13 02:07:47;;;;;;;5.85;5.40;;;12.60;99.90;;;;;;4965736;28;20200;-82
2021/05/13 02:10:13;;;;;;;5.05;4.57;;;12.60;99.90;;;;;;4963582;29;20240;-82
2021/05/13 02:12:40;;;;;;;6.85;4.25;;;12.60;99.90;;;;;;4959452;29;20196;-82
2021/05/13 02:15:07;;;;;;;5.00;4.65;;;12.60;99.90;;;;;;4965300;29;20204;-82
2021/05/13 02:17:33;;;;;;;5.20;4.80;;;12.60;99.90;;;;;;4963568;28;20196;-82
2021/05/13 02:19:59;;;;;;;4.78;4.38;;;12.60;99.90;;;;;;4962840;29;20169;-81
2021/05/13 02:22:25;;;;;;;5.53;5.03;;;12.60;99.90;;;;;;4964083;28;20175;-82
2021/05/13 02:24:50;;;;;;;5.37;4.60;;;12.70;99.90;;;;;;4946241;29;20591;-82
2021/05/13 02:27:16;;;;;;;4.77;4.47;;;12.60;99.90;;;;;;4959129;28;20223;-82
2021/05/13 02:29:42;;;;;;;5.33;4.93;;;12.60;99.90;;;;;;4940562;29;20691;-82
2021/05/13 02:32:07;;;;;;;5.67;5.17;;;12.60;99.90;;;;;;4958970;29;20584;-82
2021/05/13 02:34:33;;;;;;;4.87;4.37;;;12.60;99.90;;;;;;4940013;29;20212;-81
2021/05/13 02:36:59;;;;;;;5.93;4.53;;;12.60;99.90;;;;;;4940519;29;20203;-82
2021/05/13 02:39:24;;;;;;;5.63;5.00;;;12.50;99.90;;;;;;4925691;29;20231;-82
2021/05/13 02:41:50;;;;;;;5.80;5.30;;;12.50;99.90;;;;;;4942180;29;20235;-82
2021/05/13 02:44:16;;;;;;;5.63;5.13;;;12.50;99.90;;;;;;4965336;29;20259;-81
2021/05/13 02:46:41;;;;;;;5.67;5.17;;;12.50;99.90;;;;;;4976897;28;20187;-82
2021/05/13 02:49:07;;;;;;;6.10;5.33;;;12.40;99.90;;;;;;4973555;29;20176;-82
2021/05/13 02:51:33;;;;;;;5.10;4.70;;;12.40;99.90;;;;;;4971275;29;20167;-82
2021/05/13 02:53:59;;;;;;;5.00;4.60;;;12.40;99.90;;;;;;4961812;29;20663;-82
2021/05/13 02:56:24;;;;;;;5.40;5.00;;;12.40;99.90;;;;;;4975628;28;20169;-82
2021/05/13 02:58:51;;;;;;;6.27;5.67;;;12.40;99.90;;;;;;4974793;29;20165;-82
2021/05/13 03:01:29;;;;;;;5.90;5.32;;;12.40;99.90;;;;;;4951318;29;20173;-82
2021/05/13 03:03:56;;;;;;;6.68;6.07;;;12.40;99.90;;;;;;4973621;29;20167;-82
2021/05/13 03:06:23;;;;;;;4.45;4.05;;;12.30;99.90;;;;;;4978135;28;20161;-82
2021/05/13 03:08:54;;;;;;;4.57;4.18;;;12.30;99.90;;;;;;4979975;28;20227;-81
2021/05/13 03:11:21;;;;;;;4.63;4.22;;;12.30;99.90;;;;;;4963525;28;20168;-81
2021/05/13 03:13:49;;;;;;;5.75;5.25;;;12.30;99.90;;;;;;4979515;28;20230;-81
2021/05/13 03:16:15;;;;;;;4.32;3.92;;;12.30;99.90;;;;;;4973417;29;20172;-82
2021/05/13 03:18:44;;;;;;;5.10;4.70;;;12.30;99.90;;;;;;4975059;28;20207;-82
2021/05/13 03:24:04;;;;;;;5.10;4.60;;;12.30;99.90;;;;;;4954851;29;20587;-82
2021/05/13 03:29:01;;;;;;;5.95;5.45;;;12.30;99.90;;;;;;4949175;29;20191;-82
2021/05/13 03:31:27;;;;;;;5.10;4.60;;;12.30;99.90;;;;;;4970005;29;20164;-82
2021/05/13 03:33:52;;;;;;;6.40;5.80;;;12.30;99.90;;;;;;4978128;28;20227;-82
2021/05/13 03:36:18;;;;;;;5.70;5.20;;;12.30;99.90;;;;;;4961924;28;20212;-83
2021/05/13 03:38:44;;;;;;;5.50;5.00;;;12.30;99.90;;;;;;4962464;29;20190;-82
2021/05/13 03:41:10;;;;;;;6.30;5.50;;;12.30;99.90;;;;;;4966495;29;20164;-82
2021/05/13 03:43:35;;;;;;;5.60;5.20;;;12.30;99.90;;;;;;4984579;28;20613;-82
2021/05/13 03:46:01;;;;;;;7.63;4.50;;;12.30;99.90;;;;;;4980733;29;20179;-83
2021/05/13 03:48:27;;;;;;;6.03;5.43;;;12.20;99.90;;;;;;4963908;29;20199;-83
2021/05/13 03:50:52;;;;;;;5.30;4.90;;;12.20;99.90;;;;;;4981594;29;20164;-82
2021/05/13 03:53:18;;;;;;;4.87;4.47;;;12.20;99.90;;;;;;4964418;29;20200;-83
2021/05/13 03:55:48;;;;;;;4.80;4.30;;;12.20;99.90;;;;;;4972243;29;20172;-82
2021/05/13 03:58:14;;;;;;;5.28;4.18;;;12.20;99.90;;;;;;4973759;28;20200;-82
2021/05/13 04:03:14;;;;;;;4.45;4.05;;;12.20;99.90;;;;;;4956530;28;20243;-83
2021/05/13 04:05:41;;;;;;;5.37;4.80;;;12.20;99.90;;;;;;4942407;29;20220;-83
2021/05/13 04:08:08;;;;;;;5.60;5.10;;;12.20;99.90;;;;;;4960388;29;21270;-83
2021/05/13 04:10:34;;;;;;;6.13;5.13;;;12.20;99.90;;;;;;4979410;29;20183;-83
2021/05/13 04:13:03;;;;;;;5.00;4.55;;;12.20;99.90;;;;;;4975018;29;20184;-83
2021/05/13 04:15:29;;;;;;;6.05;5.00;;;12.20;99.90;;;;;;4973296;29;20199;-82
2021/05/13 04:17:55;;;;;;;5.68;4.60;;;12.20;99.90;;;;;;4954956;28;20192;-83
2021/05/13 04:20:20;;;;;;;5.43;4.93;;;12.20;99.90;;;;;;4962702;29;20210;-83
2021/05/13 04:22:46;;;;;;;4.30;3.90;;;12.20;99.90;;;;;;4975634;28;20184;-83
2021/05/13 04:25:12;;;;;;;4.50;4.10;;;12.20;99.90;;;;;;4974600;29;20647;-83
2021/05/13 04:27:38;;;;;;;4.82;4.43;;;12.20;99.90;;;;;;4974069;28;20206;-83
2021/05/13 04:30:05;;;;;;;4.07;3.70;;;12.20;99.90;;;;;;4978167;28;20157;-82
2021/05/13 04:32:31;;;;;;;4.32;4.03;;;12.20;99.90;;;;;;4968798;29;20168;-83
2021/05/13 04:34:57;;;;;;;4.00;3.70;;;12.20;99.90;;;;;;4966231;28;20246;-83
2021/05/13 04:37:23;;;;;;;4.20;3.87;;;12.20;99.90;;;;;;4961193;28;20534;-83
2021/05/13 04:39:49;;;;;;;3.90;3.60;;;12.10;99.90;;;;;;4948621;29;20990;-83
2021/05/13 04:42:15;;;;;;;4.15;3.75;;;12.20;99.90;;;;;;4964937;29;20172;-82
2021/05/13 04:44:41;;;;;;;3.50;3.20;;;12.20;99.90;;;;;;4976925;28;20187;-82
2021/05/13 04:49:49;;;;;;;3.92;3.53;;;12.30;99.90;;;;;;4977963;29;20180;-82
2021/05/13 04:52:15;;;;;;;4.40;4.00;;;12.40;99.90;;;;;;4970549;28;20540;-82
2021/05/13 04:54:41;;;;;;;4.30;3.88;;;12.40;99.90;;;;;;4963431;29;20259;-81
2021/05/13 04:57:07;;;;;;;3.70;3.50;;;12.40;99.90;;;;;;4954967;29;20302;-81
2021/05/13 04:59:33;;;;;;;4.63;4.23;;;12.50;99.90;;;;;;4975311;29;20606;-82
2021/05/13 05:01:58;;;;;;;4.73;4.33;;;12.50;99.90;;;;;;4958455;29;20196;-82
2021/05/13 05:04:24;;;;;;;5.83;3.87;;;12.50;99.90;;;;;;4974733;29;20267;-81
2021/05/13 05:06:50;;;;;;;3.23;3.03;;;12.50;99.90;;;;;;4965376;28;20204;-81
2021/05/13 05:09:15;;;;;;;5.30;4.90;;;12.50;99.90;;;;;;4968221;29;20176;-81
2021/05/13 05:11:41;;;;;;;4.10;3.70;;;12.60;99.90;;;;;;4949626;29;20180;-82
2021/05/13 05:14:07;;;;;;;4.50;3.40;;;12.60;99.90;;;;;;4962472;29;20557;-81
2021/05/13 05:16:32;;;;;;;4.03;3.53;;;12.70;99.90;;;;;;4940066;28;20695;-80
2021/05/13 05:18:58;;;;;;;4.37;3.97;;;12.80;99.90;;;;;;4956975;29;20187;-81
2021/05/13 05:21:24;;;;;;;4.20;3.90;;;12.90;99.90;;;;;;4962121;29;20640;-89
2021/05/13 05:23:50;;;;;;;3.60;3.30;;;13.00;99.90;;;;;;4956361;29;20271;-89
2021/05/13 05:26:15;;;;;;;6.20;3.60;;;13.00;99.90;;;;;;4954828;29;20633;-89
2021/05/13 05:28:41;;;;;;;3.67;3.37;;;13.00;99.90;;;;;;4938604;29;20759;-88
2021/05/13 05:31:07;;;;;;;3.73;3.40;;;13.20;99.90;;;;;;4969754;29;20200;-81
2021/05/13 05:33:32;;;;;;;3.53;3.23;;;13.40;99.90;;;;;;4970067;29;20276;-81
2021/05/13 05:35:58;;;;;;;2.97;2.77;;;13.70;99.90;;;;;;4969085;29;20183;-81
2021/05/13 05:38:24;;;;;;;3.93;3.63;;;14.00;99.90;;;;;;4945551;29;20258;-81
2021/05/13 05:40:49;;;;;;;3.43;2.80;;;14.20;99.90;;;;;;4966260;29;20272;-81
2021/05/13 05:43:15;;;;;;;4.50;4.10;;;14.60;99.90;;;;;;4966484;29;20168;-81
2021/05/13 05:45:41;;;;;;;3.17;2.87;;;15.20;99.90;;;;;;4950455;29;20187;-81
2021/05/13 05:48:07;;;;;;;3.20;2.87;;;16.00;99.90;;;;;;4967164;28;20196;-81
2021/05/13 05:50:36;;;;;;;4.13;3.20;;;16.90;99.90;;;;;;4974129;29;20572;-82
2021/05/13 05:53:03;;;;;;;2.90;2.33;;;17.70;99.90;;;;;;4965213;29;20574;-81
2021/05/13 05:55:31;;;;;;;3.00;2.70;;;18.60;99.90;;;;;;4943165;29;20603;-81
2021/05/13 05:57:57;;;;;;;2.20;2.00;;;19.50;99.90;;;;;;4973167;28;20643;-81
2021/05/13 06:00:23;;;;;;;2.47;1.67;;;20.40;99.90;;;;;;4962412;29;20619;-81
2021/05/13 06:02:49;;;;;;;4.60;2.70;;;21.50;99.90;;;;;;4975304;28;20582;-80
2021/05/13 06:05:15;;;;;;;1.90;1.80;;;22.50;99.90;;;;;;4970964;29;20600;-82
2021/05/13 06:07:41;;;;;;;2.20;2.00;;;23.50;99.90;;;;;;4978454;28;20286;-83
2021/05/13 06:10:09;;;;;;;2.40;2.03;;;24.40;99.90;;;;;;4974660;28;20670;-83
2021/05/13 06:12:35;;;;;;;2.10;1.87;;;25.20;99.90;;;;;;4973179;28;20599;-83
2021/05/13 06:15:02;;;;;;;2.03;1.83;;;25.90;99.90;;;;;;4941092;28;20635;-81
2021/05/13 06:17:28;;;;;;;2.30;2.10;;;26.70;99.90;;;;;;4965280;28;20607;-79
2021/05/13 06:19:57;;;;;;;2.53;2.13;;;27.20;99.90;;;;;;4985100;28;20571;-80
2021/05/13 06:22:22;;;;;;;2.80;2.20;;;27.50;99.90;;;;;;4986403;28;20588;-81
2021/05/13 06:24:49;;;;;;;2.53;2.13;;;27.70;99.90;;;;;;4951238;28;20579;-81
2021/05/13 06:27:15;;;;;;;2.57;2.10;;;28.10;99.90;;;;;;4934772;28;20218;-76
2021/05/13 06:29:41;;;;;;;3.40;1.70;;;28.50;99.90;;;;;;4956276;28;20567;-76
2021/05/13 06:32:06;;;;;;;2.73;2.30;;;28.90;99.10;;;;;;4956218;28;20266;-75
2021/05/13 06:34:32;;;;;;;3.20;3.00;;;29.10;97.70;;;;;;4956181;28;20203;-76
2021/05/13 06:36:58;;;;;;;3.10;2.60;;;29.40;95.90;;;;;;4955882;28;20230;-76
2021/05/13 06:39:25;;;;;;;3.63;2.70;;;29.70;95.20;;;;;;4956359;28;20180;-76
2021/05/13 06:41:51;;;;;;;5.63;4.50;;;30.10;94.50;;;;;;4973467;28;20579;-76
2021/05/13 06:44:17;;;;;;;2.80;2.20;;;30.50;93.40;;;;;;4956221;28;21137;-76
2021/05/13 06:46:42;;;;;;;6.87;5.13;;;31.00;93.00;;;;;;4955840;28;20661;-77
2021/05/13 06:49:09;;;;;;;2.57;2.33;;;31.30;91.20;;;;;;4973443;28;20567;-77
2021/05/13 06:51:34;;;;;;;5.90;4.10;;;31.30;89.70;;;;;;4956138;28;20195;-76
2021/05/13 06:54:00;;;;;;;3.43;3.10;;;31.30;85.40;;;;;;4973112;28;21178;-76
2021/05/13 06:56:27;;;;;;;3.80;2.83;;;31.30;82.30;;;;;;4955559;28;20264;-76
2021/05/13 06:58:53;;;;;;;4.80;2.57;;;31.10;81.40;;;;;;4955851;28;20567;-76
2021/05/13 07:01:19;;;;;;;4.73;2.50;;;31.40;81.10;;;;;;4955894;28;20623;-76
2021/05/13 07:03:45;;;;;;;5.20;3.70;;;31.50;79.20;;;;;;4972776;28;20711;-76
2021/05/13 07:06:10;;;;;;;5.50;3.00;;;31.60;67.20;;;;;;4972982;28;20198;-77
2021/05/13 07:08:36;;;;;;;15.43;4.67;;;31.90;72.90;;;;;;4939252;28;20225;-77
2021/05/13 07:11:02;;;;;;;3.40;2.70;;;32.10;72.10;;;;;;4955676;28;20175;-77
2021/05/13 07:13:28;;;;;;;3.07;2.20;;;32.40;72.10;;;;;;4940168;28;20204;-77
2021/05/13 07:15:53;;;;;;;2.13;1.90;;;32.50;70.20;;;;;;4973699;28;20161;-76
2021/05/13 07:18:19;;;;;;;2.27;2.03;;;32.70;69.10;;;;;;4955567;28;20196;-76
2021/05/13 07:20:45;;;;;;;2.50;1.90;;;32.70;66.60;;;;;;4955960;28;20175;-76
2021/05/13 07:23:12;;;;;;;2.17;1.97;;;32.70;66.00;;;;;;4973131;28;20268;-76
2021/05/13 07:25:38;;;;;;;2.60;2.40;;;32.90;65.10;;;;;;4956055;28;20672;-76
2021/05/13 07:28:04;;;;;;;2.13;1.80;;;33.20;64.10;;;;;;4955076;28;20616;-75
2021/05/13 07:30:32;;;;;;;2.20;2.00;;;33.40;64.10;;;;;;4955633;28;21134;-75
2021/05/13 07:32:58;;;;;;;2.90;1.90;;;33.80;63.50;;;;;;4972749;28;20579;-75
2021/05/13 07:35:24;;;;;;;1.80;1.70;;;34.20;62.90;;;;;;4973114;28;20595;-75
2021/05/13 07:37:50;;;;;;;2.87;2.00;;;34.30;61.30;;;;;;4972453;28;20591;-75
2021/05/13 07:40:21;;;;;;;2.50;1.67;;;34.60;60.10;;;;;;4955622;28;20649;-75
2021/05/13 07:42:47;;;;;;;1.63;1.53;;;34.70;58.40;;;;;;4955763;28;21024;-75
2021/05/13 07:45:13;;;;;;;3.13;2.83;;;34.70;57.30;;;;;;4973147;28;20566;-75
2021/05/13 07:47:39;;;;;;;3.20;1.43;;;34.70;57.50;;;;;;4955372;28;20595;-75
2021/05/13 07:50:09;;;;;;;2.03;1.60;;;34.90;56.90;;;;;;4955469;28;20683;-75
2021/05/13 07:52:35;;;;;;;1.90;1.27;;;35.10;54.70;;;;;;4972787;28;20559;-75
2021/05/13 07:55:02;;;;;;;3.00;2.20;;;35.30;55.60;;;;;;4939455;28;20680;-75
2021/05/13 07:57:28;;;;;;;1.80;1.13;;;35.40;54.10;;;;;;4954889;28;20188;-75
2021/05/13 07:59:54;;;;;;;2.00;1.60;;;35.40;54.10;;;;;;4939359;28;20921;-75
2021/05/13 08:02:20;;;;;;;1.97;1.57;;;35.60;53.90;;;;;;4972564;28;20671;-75
2021/05/13 08:04:45;;;;;;;2.43;1.70;;;35.80;53.30;;;;;;4972643;28;20679;-75
2021/05/13 08:07:11;;;;;;;2.40;1.30;;;36.00;52.60;;;;;;4972062;28;20191;-75
2021/05/13 08:09:37;;;;;;;2.87;1.90;;;35.90;51.30;;;;;;4972575;28;20172;-75
2021/05/13 08:12:03;;;;;;;1.30;1.00;;;35.80;50.70;;;;;;4955197;28;20852;-75
2021/05/13 08:14:28;;;;;;;2.15;1.45;;;35.70;50.70;;;;;;4955097;28;20730;-76
2021/05/13 08:16:54;;;;;;;2.00;1.50;;;35.70;47.80;;;;;;4955832;28;20198;-75
2021/05/13 08:19:20;;;;;;;2.53;0.90;;;35.90;49.50;;;;;;4973526;28;20207;-75
2021/05/13 08:21:47;;;;;;;1.43;1.10;;;36.30;49.80;;;;;;4973292;28;20219;-76
2021/05/13 08:24:12;;;;;;;1.50;1.00;;;36.60;49.10;;;;;;4955558;28;20787;-76
2021/05/13 08:26:38;;;;;;;1.40;1.20;;;36.50;47.60;;;;;;4973475;28;20559;-76
2021/05/13 08:29:04;;;;;;;2.00;1.30;;;36.30;47.20;;;;;;4976028;28;20589;-75
2021/05/13 08:31:30;;;;;;;1.43;1.00;;;36.10;46.80;;;;;;4958828;28;20535;-76
2021/05/13 08:33:56;;;;;;;2.37;0.80;;;35.80;46.20;;;;;;4977010;28;20618;-75
2021/05/13 08:36:21;;;;;;;1.70;1.07;;;35.40;46.10;;;;;;4975344;28;20223;-76
2021/05/13 08:38:47;;;;;;;1.77;0.90;;;35.10;45.50;;;;;;4958515;28;20183;-75
2021/05/13 08:41:13;;;;;;;1.83;0.80;;;34.70;45.90;;;;;;4958370;28;20222;-75
2021/05/13 08:43:38;;;;;;;1.70;1.00;;;34.80;46.50;;;;;;4942207;28;20245;-75
2021/05/13 08:46:04;;;;;;;1.33;0.90;;;35.00;46.20;;;;;;4976809;28;20171;-76
2021/05/13 08:48:30;;;;;;;1.93;0.90;;;35.10;45.40;;;;;;4961738;28;20694;-76
2021/05/13 08:50:57;;;;;;;1.67;0.80;;;35.10;45.70;;;;;;4961642;28;20218;-76
2021/05/13 08:53:23;;;;;;;1.30;0.80;;;35.30;45.10;;;;;;4961338;28;20211;-76
2021/05/13 08:55:49;;;;;;;2.13;0.80;;;35.30;45.30;;;;;;4962050;28;20570;-76
2021/05/13 08:58:15;;;;;;;1.30;0.77;;;35.60;45.50;;;;;;4945122;28;20219;-76
2021/05/13 09:00:51;;;;;;;1.70;1.00;;;35.70;44.80;;;;;;4945626;28;20184;-75
2021/05/13 09:03:36;;;;;;;1.50;0.80;;;35.60;43.60;;;;;;4976953;28;20171;-76
2021/05/13 09:06:06;;;;;;;1.73;0.77;;;35.40;44.30;;;;;;4958014;28;21090;-75
2021/05/13 09:08:35;;;;;;;1.67;0.70;;;35.70;44.70;;;;;;4957620;28;20608;-76
2021/05/13 09:11:17;;;;;;;1.20;0.70;;;36.10;44.20;;;;;;4957654;28;20939;-76
2021/05/13 09:13:48;;;;;;;1.40;0.87;;;36.40;43.20;;;;;;4975021;28;21078;-76
2021/05/13 09:16:35;;;;;;;1.47;0.90;;;36.40;43.10;;;;;;4958100;28;20575;-75
2021/05/13 09:19:25;;;;;;;1.40;0.70;;;36.70;43.40;;;;;;4975464;28;20606;-76
2021/05/13 09:22:04;;;;;;;2.60;0.80;;;37.10;42.80;;;;;;4958289;28;20622;-76
2021/05/13 09:24:46;;;;;;;1.33;0.73;;;37.50;42.70;;;;;;4942994;28;20574;-76
2021/05/13 09:27:25;;;;;;;1.27;0.60;;;37.90;42.30;;;;;;4942611;28;20757;-76
2021/05/13 09:30:12;;;;;;;1.53;0.70;;;38.40;42.20;;;;;;4927091;28;20571;-75
2021/05/13 09:32:38;;;;;;;1.80;0.90;;;38.90;42.00;;;;;;4959782;28;20587;-76
2021/05/13 09:35:09;;;;;;;1.57;0.70;;;39.10;41.20;;;;;;4977944;28;20700;-76
2021/05/13 09:37:43;;;;;;;1.20;0.60;;;39.50;40.70;;;;;;4977980;28;21059;-76
2021/05/13 09:40:11;;;;;;;2.20;0.70;;;39.80;40.00;;;;;;4977400;28;20567;-76
2021/05/13 09:42:37;;;;;;;1.00;0.50;;;39.90;38.90;;;;;;4964097;28;21166;-76
2021/05/13 09:45:04;;;;;;;1.30;0.63;;;40.00;38.40;;;;;;4964467;28;20649;-76
2021/05/13 09:47:33;;;;;;;1.20;0.60;;;40.10;38.10;;;;;;4957663;28;21204;-75
2021/05/13 09:50:03;;;;;;;2.17;0.70;;;40.20;37.50;;;;;;4957115;28;20571;-75
2021/05/13 09:52:57;;;;;;;1.30;0.60;;;40.30;37.40;;;;;;4974440;28;20980;-75
2021/05/13 09:55:29;;;;;;;1.27;0.70;;;40.60;37.30;;;;;;4971290;28;20673;-75
2021/05/13 09:57:59;;;;;;;3.17;1.00;;;40.60;36.20;;;;;;4974007;28;20598;-75
2021/05/13 10:00:45;;;;;;;1.43;0.80;;;40.70;36.30;;;;;;4974544;28;20567;-75
2021/05/13 10:03:14;;;;;;;2.63;0.80;;;40.80;36.30;;;;;;4941328;28;20575;-75
2021/05/13 10:05:53;;;;;;;2.00;0.80;;;40.60;34.00;;;;;;4956800;28;21005;-75
2021/05/13 10:08:19;;;;;;;2.27;0.63;;;40.10;33.60;;;;;;4956460;28;20587;-75
2021/05/13 10:10:46;;;;;;;1.67;0.80;;;39.60;33.80;;;;;;4973960;28;20559;-75
2021/05/13 10:13:13;;;;;;;2.43;0.60;;;39.30;33.80;;;;;;4974015;28;20555;-75
2021/05/13 10:15:41;;;;;;;2.10;0.50;;;39.20;34.10;;;;;;4956832;28;20571;-76
2021/05/13 10:18:15;;;;;;;1.73;0.80;;;39.30;33.60;;;;;;4973739;28;20622;-75
2021/05/13 10:20:41;;;;;;;1.60;0.50;;;39.40;33.50;;;;;;4973929;28;21024;-75
2021/05/13 10:23:12;;;;;;;2.13;0.70;;;39.40;33.50;;;;;;4974115;28;20587;-75
2021/05/13 10:25:39;;;;;;;2.20;0.73;;;39.50;33.40;;;;;;4940835;28;20587;-75
2021/05/13 10:28:05;;;;;;;1.60;1.43;;;39.30;32.50;;;;;;4939492;28;20625;-75
2021/05/13 10:30:32;;;;;;;2.40;1.17;;;39.00;32.10;;;;;;4956046;28;20581;-75
2021/05/13 10:33:18;;;;;;;2.00;0.90;;;38.90;32.20;;;;;;4955725;28;20579;-75
2021/05/13 10:36:06;;;;;;;1.60;0.53;;;38.90;32.10;;;;;;4940089;28;20575;-75
2021/05/13 10:38:38;;;;;;;1.30;0.60;;;39.00;30.60;;;;;;4939358;28;20657;-75
2021/05/13 10:41:36;;;;;;;1.70;0.60;;;38.30;30.40;;;;;;4955994;28;21076;-75
2021/05/13 10:44:11;;;;;;;1.37;0.53;;;38.10;31.60;;;;;;4939921;28;20571;-75
2021/05/13 10:46:39;;;;;;;3.57;0.63;;;37.90;30.80;;;;;;4955565;28;20579;-75
2021/05/13 10:49:19;;;;;;;1.23;0.60;;;37.80;31.20;;;;;;4939405;28;21157;-75
2021/05/13 10:51:47;;;;;;;1.10;0.50;;;37.60;31.40;;;;;;4955453;28;20575;-75
2021/05/13 10:54:28;;;;;;;1.80;0.60;;;37.40;30.90;;;;;;4972729;28;20619;-75
2021/05/13 10:57:11;;;;;;;1.10;0.53;;;37.10;31.60;;;;;;4955608;28;20610;-75
2021/05/13 10:59:37;;;;;;;1.10;0.47;;;36.80;30.40;;;;;;4939610;28;20567;-75
2021/05/13 11:02:03;;;;;;;1.47;0.60;;;36.60;30.30;;;;;;4973142;28;20663;-76
2021/05/13 11:04:29;;;;;;;1.53;0.60;;;36.40;31.10;;;;;;4955447;28;20832;-75
2021/05/13 11:06:56;;;;;;;1.90;0.70;;;36.30;31.10;;;;;;4939102;28;20341;-75
2021/05/13 11:09:43;;;;;;;1.20;0.60;;;36.20;31.80;;;;;;4955529;28;20578;-75
2021/05/13 11:12:11;;;;;;;2.20;0.80;;;36.20;32.10;;;;;;4971880;28;21033;-75
2021/05/13 11:17:57;;;;;;;1.50;0.70;;;36.00;30.80;;;;;;4973582;28;20630;-75
2021/05/13 11:20:37;;;;;;;3.00;0.70;;;36.00;30.70;;;;;;4972771;28;20598;-76
2021/05/13 11:23:15;;;;;;;1.70;0.63;;;35.90;30.20;;;;;;4955420;28;21176;-76
2021/05/13 11:26:03;;;;;;;1.80;0.70;;;35.70;30.60;;;;;;4972058;28;20718;-77
2021/05/13 11:28:29;;;;;;;2.17;0.87;;;35.10;30.30;;;;;;4954743;28;20218;-77
2021/05/13 11:31:04;;;;;;;2.33;1.00;;;34.90;30.30;;;;;;4941065;28;20611;-77
2021/05/13 11:33:57;;;;;;;1.50;0.53;;;34.50;30.00;;;;;;4939492;28;20677;-77
2021/05/13 11:36:28;;;;;;;1.47;0.63;;;34.00;30.20;;;;;;4972121;28;20567;-77
2021/05/13 11:39:00;;;;;;;1.60;0.80;;;33.30;30.00;;;;;;4955488;28;20694;-76
2021/05/13 11:41:27;;;;;;;2.43;0.63;;;32.80;30.10;;;;;;4972710;28;20574;-76
2021/05/13 11:43:53;;;;;;;1.30;0.80;;;32.20;30.70;;;;;;4939661;28;20581;-76
2021/05/13 11:46:24;;;;;;;1.90;0.73;;;31.90;31.30;;;;;;4955052;28;20974;-78
2021/05/13 11:48:51;;;;;;;1.60;0.60;;;31.50;31.60;;;;;;4955514;28;20579;-77
2021/05/13 11:51:25;;;;;;;5.33;1.13;;;31.10;31.70;;;;;;4939381;28;20571;-77
2021/05/13 11:53:59;;;;;;;1.97;0.70;;;30.80;32.20;;;;;;4972564;28;20627;-77
2021/05/13 11:56:30;;;;;;;1.53;0.80;;;30.60;33.10;;;;;;4972036;28;20568;-77
2021/05/13 11:59:01;;;;;;;1.53;0.60;;;30.40;33.00;;;;;;4939372;28;20688;-77
2021/05/13 12:01:34;;;;;;;2.80;0.70;;;30.30;33.10;;;;;;4973893;28;20670;-78
2021/05/13 12:04:09;;;;;;;1.30;0.60;;;30.20;33.30;;;;;;4976384;28;20585;-77
2021/05/13 12:06:50;;;;;;;1.57;0.80;;;30.20;33.50;;;;;;4959546;28;20670;-76
2021/05/13 12:09:19;;;;;;;1.70;0.70;;;30.20;33.40;;;;;;4976374;28;20586;-76
2021/05/13 12:11:45;;;;;;;2.20;0.63;;;30.20;34.20;;;;;;4976185;28;20722;-76
2021/05/13 12:14:16;;;;;;;2.27;0.80;;;30.40;34.20;;;;;;4975430;28;20719;-76
2021/05/13 12:16:42;;;;;;;1.40;0.70;;;30.40;34.60;;;;;;4942355;28;20958;-76
2021/05/13 12:19:12;;;;;;;2.40;0.63;;;30.60;34.90;;;;;;4976143;28;20565;-76
2021/05/13 12:21:40;;;;;;;2.33;0.60;;;30.80;34.70;;;;;;4958938;28;20578;-76
2021/05/13 12:24:07;;;;;;;2.03;0.93;;;30.80;34.40;;;;;;4976166;28;21020;-76
2021/05/13 12:26:38;;;;;;;1.80;0.80;;;30.90;34.80;;;;;;4958013;28;20579;-77
2021/05/13 12:29:06;;;;;;;1.57;0.80;;;30.90;34.60;;;;;;4982156;23;20670;-77
2021/05/13 12:31:33;;;;;;;1.50;0.70;;;30.80;34.10;;;;;;4969995;28;20563;-77
2021/05/13 12:34:04;;;;;;;2.20;0.70;;;30.60;33.60;;;;;;4978174;28;21061;-76
2021/05/13 12:36:32;;;;;;;1.47;0.70;;;30.40;33.90;;;;;;4961551;28;21248;-76
2021/05/13 12:38:58;;;;;;;2.23;0.60;;;30.20;34.00;;;;;;4995201;28;20594;-76
2021/05/13 12:41:26;;;;;;;1.17;0.60;;;29.90;33.20;;;;;;4995205;28;20805;-76
2021/05/13 12:44:15;;;;;;;2.90;0.60;;;29.70;32.90;;;;;;4995388;28;20573;-77
2021/05/13 12:46:43;;;;;;;2.37;0.80;;;29.40;34.10;;;;;;4994825;28;20647;-77
2021/05/13 12:49:18;;;;;;;1.30;0.50;;;29.10;32.80;;;;;;4977794;28;20620;-77
2021/05/13 12:52:03;;;;;;;1.70;0.60;;;28.70;33.20;;;;;;4977578;28;20581;-77
2021/05/13 12:54:31;;;;;;;2.40;1.30;;;28.40;33.60;;;;;;4977557;28;20719;-76
2021/05/13 12:57:26;;;;;;;2.57;0.80;;;28.10;33.00;;;;;;4961165;28;20575;-76
2021/05/13 12:59:52;;;;;;;3.73;0.60;;;27.80;33.30;;;;;;4974132;28;20589;-77
2021/05/13 13:02:25;;;;;;;2.13;0.60;;;27.60;33.60;;;;;;4977438;28;20573;-77
2021/05/13 13:04:55;;;;;;;1.30;0.60;;;27.50;34.30;;;;;;4994992;28;20171;-76
2021/05/13 13:07:36;;;;;;;2.73;0.70;;;27.40;34.20;;;;;;4994460;28;21236;-76